createdAt,value
2019-01-15T00:01:51.053Z,39.93
2019-01-15T00:06:56.435Z,37.20
2019-01-15T00:12:07.849Z,36.53
2019-01-15T00:17:09.013Z,38.30
2019-01-15T00:22:14.196Z,37.37
2019-01-15T00:27:19.349Z,36.80
2019-01-15T00:32:25.726Z,33.67
2019-01-15T00:37:31.144Z,34.00
2019-01-15T00:42:36.205Z,37.43
2019-01-15T00:47:41.607Z,36.20
2019-01-15T00:52:46.581Z,30.60
2019-01-15T00:57:51.594Z,33.53
2019-01-15T01:02:56.603Z,34.73
2019-01-15T01:08:01.862Z,35.63
2019-01-15T01:13:07.078Z,31.50
2019-01-15T01:18:12.369Z,32.17
2019-01-15T01:23:17.477Z,35.07
2019-01-15T01:28:22.512Z,35.53
2019-01-15T01:33:27.521Z,33.57
2019-01-15T01:38:32.584Z,32.83
2019-01-15T01:43:37.629Z,35.60
2019-01-15T01:48:42.660Z,35.13
2019-01-15T01:53:47.635Z,36.30
2019-01-15T01:58:52.650Z,32.50
2019-01-15T02:03:57.707Z,33.43
2019-01-15T02:09:03.329Z,34.67
2019-01-15T02:14:09.352Z,34.90
2019-01-15T02:19:22.293Z,40.67
2019-01-15T02:24:27.671Z,36.20
2019-01-15T02:29:32.686Z,41.80
2019-01-15T02:34:37.760Z,37.37
2019-01-15T02:39:42.838Z,38.07
2019-01-15T02:44:48.977Z,39.13
2019-01-15T02:49:54.028Z,38.17
2019-01-15T02:54:59.137Z,38.27
2019-01-15T03:00:05.855Z,40.50
2019-01-15T03:05:11.425Z,32.97
2019-01-15T03:10:17.912Z,37.33
2019-01-15T03:15:24.225Z,44.43
2019-01-15T03:20:30.474Z,44.20
2019-01-15T03:25:35.495Z,43.57
2019-01-15T03:30:40.502Z,41.67
2019-01-15T03:35:45.518Z,42.57
2019-01-15T03:40:50.707Z,40.50
2019-01-15T03:46:03.965Z,46.40
2019-01-15T03:51:03.378Z,43.53
2019-01-15T03:56:08.458Z,40.60
2019-01-15T04:01:13.454Z,44.77
2019-01-15T04:06:18.495Z,38.50
2019-01-15T04:11:23.656Z,35.73
2019-01-15T04:16:28.697Z,40.17
2019-01-15T04:21:33.798Z,41.60
2019-01-15T04:26:40.821Z,44.07
2019-01-15T04:31:45.776Z,40.67
2019-01-15T04:36:50.796Z,40.13
2019-01-15T04:41:55.838Z,42.67
2019-01-15T04:47:01.265Z,38.83
2019-01-15T04:52:07.013Z,39.53
2019-01-15T04:57:12.169Z,43.47
2019-01-15T05:02:17.296Z,42.53
2019-01-15T05:07:22.310Z,39.50
2019-01-15T05:12:27.414Z,45.43
2019-01-15T05:17:32.557Z,41.17
2019-01-15T05:22:37.644Z,39.93
2019-01-15T05:27:42.695Z,45.50
2019-01-15T05:32:47.769Z,38.60
2019-01-15T05:37:53.068Z,43.00
2019-01-15T05:42:58.181Z,42.53
2019-01-15T05:48:09.149Z,42.37
2019-01-15T05:53:14.570Z,41.93
2019-01-15T05:58:19.698Z,41.67
2019-01-15T06:03:24.766Z,46.30
2019-01-15T06:08:30.111Z,39.63
2019-01-15T06:13:35.155Z,40.50
2019-01-15T06:18:40.161Z,33.63
2019-01-15T06:23:45.550Z,38.47
2019-01-15T06:28:51.152Z,38.37
2019-01-15T06:34:03.379Z,39.03
2019-01-15T06:39:10.210Z,39.97
2019-01-15T06:44:16.124Z,40.20
2019-01-15T06:49:26.689Z,37.43
2019-01-15T06:54:34.041Z,33.43
2019-01-15T06:59:45.552Z,33.93
2019-01-15T07:04:50.703Z,33.83
2019-01-15T07:09:56.024Z,37.27
2019-01-15T07:15:01.599Z,29.30
2019-01-15T07:20:15.443Z,32.67
2019-01-15T07:25:21.258Z,32.07
2019-01-15T07:30:42.029Z,38.00
2019-01-15T07:35:47.435Z,32.87
2019-01-15T07:40:52.796Z,32.77
2019-01-15T07:45:58.090Z,38.87
2019-01-15T07:51:03.798Z,34.30
2019-01-15T07:56:08.916Z,37.63
2019-01-15T08:01:19.626Z,31.43
2019-01-15T08:06:31.646Z,28.07
2019-01-15T08:12:10.400Z,31.53
2019-01-15T08:17:17.376Z,30.80
2019-01-15T08:22:22.920Z,29.30
2019-01-15T08:27:28.064Z,27.40
2019-01-15T08:32:33.242Z,30.23
2019-01-15T08:37:38.336Z,31.70
2019-01-15T08:42:43.531Z,26.10
2019-01-15T08:47:53.471Z,29.43
2019-01-15T08:52:58.760Z,29.63
2019-01-15T08:58:03.887Z,29.20
2019-01-15T09:03:09.293Z,30.40
2019-01-15T09:08:15.933Z,28.37
2019-01-15T09:13:21.135Z,29.43
2019-01-15T09:18:26.397Z,28.90
2019-01-15T09:23:34.391Z,29.20
2019-01-15T09:28:39.421Z,31.47
2019-01-15T09:33:44.896Z,34.30
2019-01-15T09:38:50.096Z,34.97
2019-01-15T09:43:55.374Z,36.13
2019-01-15T09:49:02.819Z,31.07
2019-01-15T09:54:10.294Z,31.87
2019-01-15T09:59:15.384Z,30.77
2019-01-15T10:04:20.476Z,27.53
2019-01-15T10:09:25.654Z,28.53
2019-01-15T10:14:40.995Z,28.33
2019-01-15T10:19:41.742Z,27.80
2019-01-15T10:24:47.655Z,25.47
2019-01-15T10:29:59.201Z,26.33
2019-01-15T10:35:06.795Z,26.20
2019-01-15T10:40:13.814Z,26.27
2019-01-15T10:45:18.922Z,27.47
2019-01-15T10:50:25.286Z,27.87
2019-01-15T10:55:30.614Z,28.97
2019-01-15T11:00:35.849Z,29.93
2019-01-15T11:05:46.022Z,32.47
2019-01-15T11:10:51.376Z,33.33
2019-01-15T11:16:11.980Z,31.13
2019-01-15T11:21:17.560Z,33.43
2019-01-15T11:26:24.407Z,30.70
2019-01-15T11:31:29.797Z,32.87
2019-01-15T11:36:35.007Z,31.70
2019-01-15T11:41:52.550Z,34.17
2019-01-15T11:46:58.073Z,33.23
2019-01-15T11:52:03.639Z,31.80
2019-01-15T11:57:08.752Z,36.07
2019-01-15T12:02:32.080Z,36.23
2019-01-15T12:07:56.547Z,32.67
2019-01-15T12:13:27.852Z,31.47
2019-01-15T12:18:54.486Z,33.43
2019-01-15T12:24:23.970Z,30.77
2019-01-15T12:29:53.186Z,35.13
2019-01-15T12:35:25.140Z,31.00
2019-01-15T12:40:44.125Z,30.90
2019-01-15T12:46:08.808Z,31.17
2019-01-15T12:51:34.483Z,30.77
2019-01-15T12:57:05.518Z,26.50
2019-01-15T13:02:31.432Z,26.17
2019-01-15T13:07:55.964Z,25.27
2019-01-15T13:13:21.095Z,29.37
2019-01-15T13:18:44.112Z,29.10
2019-01-15T13:24:12.371Z,28.93
2019-01-15T13:29:45.451Z,24.63
2019-01-15T13:35:09.573Z,25.07
2019-01-15T13:40:30.955Z,24.43
2019-01-15T13:46:08.377Z,27.77
2019-01-15T13:51:45.788Z,32.03
2019-01-15T13:57:28.127Z,29.47
2019-01-15T14:02:58.416Z,29.13
2019-01-15T14:08:38.032Z,26.87
2019-01-15T14:14:00.807Z,29.60
2019-01-15T14:19:23.917Z,27.13
2019-01-15T14:24:58.295Z,27.50
2019-01-15T14:30:23.407Z,24.57
2019-01-15T14:35:58.576Z,30.10
2019-01-15T14:41:45.502Z,29.10
2019-01-15T14:47:25.235Z,31.67
2019-01-15T14:53:10.385Z,36.10
2019-01-15T14:58:40.526Z,29.40
2019-01-15T15:04:16.108Z,34.40
2019-01-15T15:09:39.182Z,32.40
2019-01-15T15:15:05.842Z,31.37
2019-01-15T15:20:43.112Z,32.03
2019-01-15T15:26:10.349Z,34.60
2019-01-15T15:31:36.906Z,33.50
2019-01-15T15:36:54.766Z,38.10
2019-01-15T15:42:13.796Z,34.63
2019-01-15T15:47:42.058Z,32.67
2019-01-15T15:53:11.009Z,35.30
2019-01-15T15:58:47.298Z,34.23
2019-01-15T16:04:14.515Z,35.23
2019-01-15T16:09:59.762Z,33.87
2019-01-15T16:15:14.124Z,32.70
2019-01-15T16:20:46.513Z,37.90
2019-01-15T16:26:09.935Z,32.40
2019-01-15T16:31:46.534Z,33.83
2019-01-15T16:37:25.653Z,32.07
2019-01-15T16:42:50.610Z,33.13
2019-01-15T16:48:14.647Z,31.13
2019-01-15T16:53:39.382Z,35.07
2019-01-15T16:59:02.762Z,32.50
2019-01-15T17:04:27.487Z,32.60
2019-01-15T17:09:55.740Z,32.67
2019-01-15T17:15:25.981Z,34.10
2019-01-15T17:20:57.780Z,31.70
2019-01-15T17:26:14.457Z,30.03
2019-01-15T17:31:38.595Z,31.27
2019-01-15T17:36:56.598Z,36.37
2019-01-15T17:42:18.358Z,31.93
2019-01-15T17:47:41.705Z,33.07
2019-01-15T17:53:09.290Z,29.03
2019-01-15T17:58:24.581Z,32.77
2019-01-15T18:03:53.681Z,32.30
2019-01-15T18:09:26.200Z,33.70
2019-01-15T18:15:02.553Z,34.07
2019-01-15T18:20:25.617Z,36.00
2019-01-15T18:26:08.078Z,36.70
2019-01-15T18:31:30.828Z,32.27
2019-01-15T18:37:03.808Z,34.43
2019-01-15T18:42:35.768Z,36.87
2019-01-15T18:47:59.370Z,29.83
2019-01-15T18:59:04.316Z,28.47
2019-01-15T19:04:27.363Z,28.10
2019-01-15T19:09:56.918Z,28.67
2019-01-15T19:15:34.202Z,33.23
2019-01-15T19:21:05.138Z,33.73
2019-01-15T19:26:37.751Z,32.37
2019-01-15T19:32:37.976Z,33.33
2019-01-15T19:38:20.691Z,37.17
2019-01-15T19:43:47.624Z,34.03
2019-01-15T19:49:20.378Z,32.40
2019-01-15T19:54:54.722Z,31.00
2019-01-15T20:00:19.261Z,34.63
2019-01-15T20:05:42.240Z,31.83
2019-01-15T20:11:12.809Z,37.40
2019-01-15T20:17:02.089Z,33.50
2019-01-15T20:22:39.167Z,31.17
2019-01-15T20:28:16.094Z,34.60
2019-01-15T20:33:47.073Z,40.67
2019-01-15T20:39:16.415Z,35.40
2019-01-15T20:44:41.221Z,35.93
2019-01-15T20:50:08.294Z,34.33
2019-01-15T20:55:35.490Z,31.93
2019-01-15T21:01:14.485Z,42.93
2019-01-15T21:06:37.724Z,32.00
2019-01-15T21:12:11.606Z,33.20
2019-01-15T21:17:39.550Z,33.00
2019-01-15T21:23:09.905Z,43.33
2019-01-15T21:28:37.356Z,34.23
2019-01-15T21:34:02.482Z,35.30
2019-01-15T21:39:32.887Z,36.13
2019-01-15T21:44:56.663Z,41.50
2019-01-15T21:50:21.532Z,43.27
2019-01-15T21:55:57.807Z,38.70
2019-01-15T22:01:30.750Z,42.80
2019-01-15T22:06:55.184Z,41.60
2019-01-15T22:12:18.218Z,47.80
2019-01-15T22:17:36.882Z,44.07
2019-01-15T22:23:01.206Z,40.03
2019-01-15T22:28:31.110Z,42.67
2019-01-15T22:33:58.122Z,41.90
2019-01-15T22:39:14.983Z,39.37
2019-01-15T22:44:44.136Z,42.03
2019-01-15T22:50:26.193Z,39.40
2019-01-15T22:56:02.758Z,42.40
2019-01-15T23:01:24.965Z,44.13
2019-01-15T23:06:48.084Z,42.40
2019-01-15T23:12:05.647Z,40.23
2019-01-15T23:17:28.720Z,40.93
2019-01-15T23:23:08.073Z,39.90
2019-01-15T23:28:31.044Z,43.43
2019-01-15T23:33:54.929Z,43.10
2019-01-15T23:39:24.761Z,38.43
2019-01-15T23:50:35.749Z,41.97
2019-01-15T23:55:59.772Z,36.73
